Oberon — SKJF — position and weather

sailwx.info

Track history (hours):
 
Tides and Currents Weather Stations Pressure Air Temp Water Temp Dewpoint Dewpoint Depression Visibility Wind Speed Wind Dir Waves Ship Positions

Oberon

Last reported at 2017-Jan-18 02:15 UTC. Time now 2017-Jan-18 16:07 UTC.
Position N 20°00' W 094°42'.

Length 232 m; draft 8.3 m.

Type: Cargo ship. MMSI: 266283000.

Date/timePositionNaut miles runAvg speedWind from/ knotsBaromVisibWave heightAir tempDewpointWater temp
2017-Jan-18 02:15N 20°00' W 094°42'1319.2
2017-Jan-18 01:33N 19°52' W 094°53'4119.9
2017-Jan-17 23:30N 19°26' W 095°27'1920.4
2017-Jan-17 22:33N 19°14' W 095°43'1918.7
2017-Jan-17 21:33N 19°11' W 096°02'6 5.9
2017-Jan-17 20:33N 19°13' W 096°08'0 0.0
2017-Jan-17 19:33N 19°13' W 096°08'0 0.0
2017-Jan-17 18:33N 19°13' W 096°08'0 0.0
2017-Jan-17 17:33N 19°13' W 096°08'0 0.0
2017-Jan-17 16:33N 19°13' W 096°08'0 0.0
2017-Jan-17 15:33N 19°13' W 096°08'0 0.0
2017-Jan-17 14:32N 19°13' W 096°08'0 0.0
2017-Jan-17 13:33N 19°13' W 096°08'0 0.4
2017-Jan-17 12:33N 19°12' W 096°08'  
2017-Jan-11 18:34N 25°22' W 080°00'1413.8
2017-Jan-11 17:33N 25°36' W 079°59'1313.5
2017-Jan-11 16:33N 25°49' W 079°59'1413.7
2017-Jan-11 15:33N 26°03' W 079°58'1413.8
2017-Jan-11 14:33N 26°17' W 079°58'1313.3
2017-Jan-11 13:33N 26°30' W 079°58'1413.2
2017-Jan-11 12:31N 26°44' W 079°55'1212.8
2017-Jan-11 11:33N 26°56' W 079°56'62313.8
2017-Jan-09 14:30N 36°39' W 075°39'1212.2
2017-Jan-09 13:33N 36°49' W 075°47'1110.5
2017-Jan-09 12:33N 36°55' W 075°57'7116.7
2017-Jan-09 08:18N 38°05' W 076°13'3719.7
2017-Jan-09 06:26N 38°41' W 076°25'1618.9
2017-Jan-09 05:34N 38°57' W 076°23'1514.5
2017-Jan-09 04:33N 39°11' W 076°28'7 6.4
2017-Jan-09 03:32N 39°15' W 076°35'0 0.0
2017-Jan-09 02:32N 39°15' W 076°35'0 0.0
2017-Jan-09 01:32N 39°15' W 076°35'0 0.0
2017-Jan-09 00:32N 39°15' W 076°35'0 0.0
2017-Jan-08 23:32N 39°15' W 076°35'0 0.0
2017-Jan-08 22:32N 39°15' W 076°35'2 2.4
2017-Jan-08 21:33N 39°14' W 076°32'0 0.0
2017-Jan-08 20:33N 39°14' W 076°32'0 0.0
2017-Jan-08 19:33N 39°14' W 076°32'0 0.0
2017-Jan-08 18:33N 39°14' W 076°32'0 0.0
2017-Jan-08 17:33N 39°14' W 076°32'0 0.0
2017-Jan-08 16:33N 39°14' W 076°32'0 0.0
2017-Jan-08 15:33N 39°14' W 076°32'0 0.0
2017-Jan-08 14:33N 39°14' W 076°32'0 0.0
2017-Jan-08 13:27N 39°14' W 076°32'0 0.0
2017-Jan-08 12:33N 39°14' W 076°32'0 0.0
2017-Jan-08 11:33N 39°14' W 076°32'0 0.0
2017-Jan-08 10:33N 39°14' W 076°32'0 0.0
2017-Jan-08 09:33N 39°14' W 076°32'0 0.0
2017-Jan-08 08:33N 39°14' W 076°32'0 0.0
2017-Jan-08 07:33N 39°14' W 076°32'0 0.0
2017-Jan-08 06:30N 39°14' W 076°32'0 0.0
2017-Jan-08 05:33N 39°14' W 076°32'0 0.0
2017-Jan-08 04:33N 39°14' W 076°32'0 0.0
2017-Jan-08 03:30N 39°14' W 076°32'0 0.0
2017-Jan-08 02:21N 39°14' W 076°32'  
Track history (hours):
 
Tides and Currents Weather Stations Pressure Air Temp Water Temp Dewpoint Dewpoint Depression Visibility Wind Speed Wind Dir Waves Ship Positions

Oberon

Last reported at 2017-Jan-18 02:15 UTC. Time now 2017-Jan-18 16:07 UTC.
Position N 20°00' W 094°42'.

Length 232 m; draft 8.3 m.

Type: Cargo ship. MMSI: 266283000.

Date/timePositionNaut miles runAvg speedWind from/ knotsBaromVisibWave heightAir tempDewpointWater temp
2017-Jan-18 02:15N 20°00' W 094°42'1319.2
2017-Jan-18 01:33N 19°52' W 094°53'4119.9
2017-Jan-17 23:30N 19°26' W 095°27'1920.4
2017-Jan-17 22:33N 19°14' W 095°43'1918.7
2017-Jan-17 21:33N 19°11' W 096°02'6 5.9
2017-Jan-17 20:33N 19°13' W 096°08'0 0.0
2017-Jan-17 19:33N 19°13' W 096°08'0 0.0
2017-Jan-17 18:33N 19°13' W 096°08'0 0.0
2017-Jan-17 17:33N 19°13' W 096°08'0 0.0
2017-Jan-17 16:33N 19°13' W 096°08'0 0.0
2017-Jan-17 15:33N 19°13' W 096°08'0 0.0
2017-Jan-17 14:32N 19°13' W 096°08'0 0.0
2017-Jan-17 13:33N 19°13' W 096°08'0 0.4
2017-Jan-17 12:33N 19°12' W 096°08'  
2017-Jan-11 18:34N 25°22' W 080°00'1413.8
2017-Jan-11 17:33N 25°36' W 079°59'1313.5
2017-Jan-11 16:33N 25°49' W 079°59'1413.7
2017-Jan-11 15:33N 26°03' W 079°58'1413.8
2017-Jan-11 14:33N 26°17' W 079°58'1313.3
2017-Jan-11 13:33N 26°30' W 079°58'1413.2
2017-Jan-11 12:31N 26°44' W 079°55'1212.8
2017-Jan-11 11:33N 26°56' W 079°56'62313.8
2017-Jan-09 14:30N 36°39' W 075°39'1212.2
2017-Jan-09 13:33N 36°49' W 075°47'1110.5
2017-Jan-09 12:33N 36°55' W 075°57'7116.7
2017-Jan-09 08:18N 38°05' W 076°13'3719.7
2017-Jan-09 06:26N 38°41' W 076°25'1618.9
2017-Jan-09 05:34N 38°57' W 076°23'1514.5
2017-Jan-09 04:33N 39°11' W 076°28'7 6.4
2017-Jan-09 03:32N 39°15' W 076°35'0 0.0
2017-Jan-09 02:32N 39°15' W 076°35'0 0.0
2017-Jan-09 01:32N 39°15' W 076°35'0 0.0
2017-Jan-09 00:32N 39°15' W 076°35'0 0.0
2017-Jan-08 23:32N 39°15' W 076°35'0 0.0
2017-Jan-08 22:32N 39°15' W 076°35'2 2.4
2017-Jan-08 21:33N 39°14' W 076°32'0 0.0
2017-Jan-08 20:33N 39°14' W 076°32'0 0.0
2017-Jan-08 19:33N 39°14' W 076°32'0 0.0
2017-Jan-08 18:33N 39°14' W 076°32'0 0.0
2017-Jan-08 17:33N 39°14' W 076°32'0 0.0
2017-Jan-08 16:33N 39°14' W 076°32'0 0.0
2017-Jan-08 15:33N 39°14' W 076°32'0 0.0
2017-Jan-08 14:33N 39°14' W 076°32'0 0.0
2017-Jan-08 13:27N 39°14' W 076°32'0 0.0
2017-Jan-08 12:33N 39°14' W 076°32'0 0.0
2017-Jan-08 11:33N 39°14' W 076°32'0 0.0
2017-Jan-08 10:33N 39°14' W 076°32'0 0.0
2017-Jan-08 09:33N 39°14' W 076°32'0 0.0
2017-Jan-08 08:33N 39°14' W 076°32'0 0.0
2017-Jan-08 07:33N 39°14' W 076°32'0 0.0
2017-Jan-08 06:30N 39°14' W 076°32'0 0.0
2017-Jan-08 05:33N 39°14' W 076°32'0 0.0
2017-Jan-08 04:33N 39°14' W 076°32'0 0.0
2017-Jan-08 03:30N 39°14' W 076°32'0 0.0
2017-Jan-08 02:21N 39°14' W 076°32'  

Dump ship's entire track history